createdAt,value
2022-10-02T00:01:47.646Z,43.55
2022-10-02T00:04:22.698Z,43.56
2022-10-02T00:06:53.004Z,43.45
2022-10-02T00:09:30.583Z,43.30
2022-10-02T00:12:00.480Z,43.46
2022-10-02T00:14:33.936Z,43.24
2022-10-02T00:17:03.195Z,42.96
2022-10-02T00:19:30.703Z,43.12
2022-10-02T00:22:19.570Z,42.88
2022-10-02T00:25:02.135Z,42.58
2022-10-02T00:27:48.956Z,42.48
2022-10-02T00:30:18.519Z,42.33
2022-10-02T00:33:18.408Z,42.31
2022-10-02T00:36:11.773Z,42.60
2022-10-02T00:38:51.271Z,42.10
2022-10-02T00:41:55.916Z,42.41
2022-10-02T00:44:40.966Z,42.28
2022-10-02T00:47:51.963Z,42.13
2022-10-02T00:50:53.009Z,42.38
2022-10-02T00:53:29.266Z,42.22
2022-10-02T00:56:36.653Z,42.24
2022-10-02T00:59:26.158Z,42.39
2022-10-02T01:02:15.576Z,42.27
2022-10-02T01:04:42.858Z,42.46
2022-10-02T01:07:11.653Z,42.37
2022-10-02T01:09:40.589Z,42.24
2022-10-02T01:12:08.634Z,42.44
2022-10-02T01:14:41.206Z,42.68
2022-10-02T01:17:24.278Z,42.78
2022-10-02T01:19:52.182Z,42.87
2022-10-02T01:22:30.070Z,43.24
2022-10-02T01:25:04.546Z,43.00
2022-10-02T01:27:36.630Z,43.32
2022-10-02T01:30:14.737Z,43.24
2022-10-02T01:32:58.836Z,43.69
2022-10-02T01:35:32.343Z,43.26
2022-10-02T01:38:06.786Z,43.48
2022-10-02T01:40:37.891Z,43.45
2022-10-02T01:43:12.731Z,43.12
2022-10-02T01:45:57.408Z,43.47
2022-10-02T01:48:45.573Z,43.69
2022-10-02T01:51:37.310Z,43.58
2022-10-02T01:54:45.671Z,43.52
2022-10-02T01:57:19.146Z,42.94
2022-10-02T02:00:02.191Z,43.09
2022-10-02T02:02:44.696Z,43.11
2022-10-02T02:05:17.751Z,42.79
2022-10-02T02:08:08.985Z,42.93
2022-10-02T02:10:46.195Z,43.17
2022-10-02T02:13:34.751Z,43.13
2022-10-02T02:16:10.860Z,42.50
2022-10-02T02:19:04.187Z,42.62
2022-10-02T02:21:36.238Z,42.69
2022-10-02T02:24:09.748Z,42.76
2022-10-02T02:26:38.125Z,42.72
2022-10-02T02:29:08.905Z,42.82
2022-10-02T02:31:44.674Z,42.65
2022-10-02T02:34:18.553Z,42.75
2022-10-02T02:36:59.112Z,42.80
2022-10-02T02:39:38.946Z,42.25
2022-10-02T02:42:08.784Z,42.42
2022-10-02T02:45:17.711Z,41.98
2022-10-02T02:48:04.181Z,42.24
2022-10-02T02:50:54.985Z,42.11
2022-10-02T02:53:48.449Z,41.56
2022-10-02T02:56:22.047Z,41.88
2022-10-02T02:58:55.552Z,42.26
2022-10-02T03:01:22.870Z,42.12
2022-10-02T03:03:49.888Z,42.01
2022-10-02T03:06:17.416Z,42.09
2022-10-02T03:08:53.186Z,42.08
2022-10-02T03:11:27.321Z,42.55
2022-10-02T03:14:13.160Z,41.99
2022-10-02T03:16:50.541Z,42.72
2022-10-02T03:19:20.491Z,42.54
2022-10-02T03:22:44.690Z,41.93
2022-10-02T03:25:24.412Z,42.11
2022-10-02T03:28:37.331Z,42.41
2022-10-02T03:31:09.024Z,42.46
2022-10-02T03:33:38.665Z,42.44
2022-10-02T03:36:06.044Z,42.23
2022-10-02T03:38:34.191Z,42.62
2022-10-02T03:41:01.385Z,42.61
2022-10-02T03:43:30.909Z,42.42
2022-10-02T03:45:58.014Z,42.44
2022-10-02T03:48:25.421Z,42.30
2022-10-02T03:50:52.384Z,42.65
2022-10-02T03:53:29.550Z,42.33
2022-10-02T03:56:10.055Z,42.35
2022-10-02T03:58:43.623Z,42.81
2022-10-02T04:01:28.397Z,42.32
2022-10-02T04:04:19.141Z,42.48
2022-10-02T04:06:54.629Z,42.62
2022-10-02T04:09:44.603Z,42.40
2022-10-02T04:12:40.509Z,42.38
2022-10-02T04:15:21.458Z,42.52
2022-10-02T04:17:58.194Z,42.69
2022-10-02T04:20:44.127Z,43.21
2022-10-02T04:23:13.912Z,43.02
2022-10-02T04:25:47.414Z,42.91
2022-10-02T04:28:15.592Z,43.11
2022-10-02T04:30:42.660Z,42.92
2022-10-02T04:33:15.751Z,42.80
2022-10-02T04:35:45.678Z,42.60
2022-10-02T04:38:34.204Z,42.94
2022-10-02T04:41:10.300Z,42.93
2022-10-02T04:44:10.949Z,43.23
2022-10-02T04:46:41.075Z,42.96
2022-10-02T04:49:26.209Z,43.77
2022-10-02T04:51:59.207Z,43.48
2022-10-02T04:54:44.893Z,43.48
2022-10-02T04:57:44.272Z,43.20
2022-10-02T05:00:16.373Z,43.15
2022-10-02T05:03:16.066Z,43.42
2022-10-02T05:06:13.853Z,43.60
2022-10-02T05:09:18.260Z,43.30
2022-10-02T05:11:56.286Z,43.69
2022-10-02T05:14:32.561Z,43.39
2022-10-02T05:17:31.182Z,43.00
2022-10-02T05:20:03.783Z,43.10
2022-10-02T05:22:30.692Z,42.94
2022-10-02T05:25:19.479Z,42.71
2022-10-02T05:28:32.915Z,42.73
2022-10-02T05:31:31.755Z,42.53
2022-10-02T05:34:47.233Z,42.49
2022-10-02T05:37:33.120Z,42.20
2022-10-02T05:40:25.883Z,42.25
2022-10-02T05:43:07.237Z,42.16
2022-10-02T05:45:39.287Z,42.26
2022-10-02T05:48:25.041Z,42.56
2022-10-02T05:50:59.887Z,42.30
2022-10-02T05:53:36.839Z,42.68
2022-10-02T05:56:38.111Z,43.22
2022-10-02T05:59:28.589Z,42.78
2022-10-02T06:01:59.009Z,42.86
2022-10-02T06:04:32.890Z,42.85
2022-10-02T06:07:07.099Z,42.35
2022-10-02T06:10:00.424Z,42.49
2022-10-02T06:13:08.984Z,43.32
2022-10-02T06:15:51.681Z,43.21
2022-10-02T06:18:24.405Z,42.38
2022-10-02T06:21:09.962Z,42.96
2022-10-02T06:23:53.789Z,42.18
2022-10-02T06:26:27.152Z,42.83
2022-10-02T06:29:04.897Z,42.98
2022-10-02T06:32:01.846Z,43.38
2022-10-02T06:34:29.357Z,42.98
2022-10-02T06:37:05.877Z,43.26
2022-10-02T06:39:43.404Z,42.94
2022-10-02T06:42:34.056Z,42.87
2022-10-02T06:45:36.828Z,42.76
2022-10-02T06:48:10.136Z,42.77
2022-10-02T06:51:18.757Z,42.82
2022-10-02T06:54:27.364Z,42.78
2022-10-02T06:57:10.978Z,42.94
2022-10-02T06:59:38.347Z,42.21
2022-10-02T07:02:46.706Z,41.88
2022-10-02T07:05:42.930Z,41.32
2022-10-02T07:08:31.848Z,41.59
2022-10-02T07:11:17.979Z,42.41
2022-10-02T07:13:45.063Z,41.47
2022-10-02T07:16:47.334Z,42.16
2022-10-02T07:19:48.234Z,41.46
2022-10-02T07:22:44.108Z,41.64
2022-10-02T07:25:36.973Z,41.62
2022-10-02T07:28:15.981Z,41.14
2022-10-02T07:31:06.140Z,41.09
2022-10-02T07:34:02.827Z,40.74
2022-10-02T07:36:38.798Z,40.80
2022-10-02T07:39:21.761Z,40.93
2022-10-02T07:42:24.187Z,39.66
2022-10-02T07:45:34.921Z,39.55
2022-10-02T07:51:33.009Z,39.86
2022-10-02T07:54:20.237Z,38.94
2022-10-02T07:56:50.360Z,38.81
2022-10-02T07:59:19.050Z,38.61
2022-10-02T08:01:50.645Z,38.21
2022-10-02T08:04:37.119Z,37.66
2022-10-02T08:07:06.766Z,39.26
2022-10-02T08:09:41.560Z,39.93
2022-10-02T08:12:26.625Z,40.65
2022-10-02T08:15:05.740Z,41.01
2022-10-02T08:18:22.786Z,40.08
2022-10-02T08:20:50.379Z,39.73
2022-10-02T08:23:29.794Z,39.15
2022-10-02T08:26:12.808Z,38.50
2022-10-02T08:28:46.649Z,38.55
2022-10-02T08:31:19.208Z,38.46
2022-10-02T08:33:46.644Z,39.73
2022-10-02T08:36:38.789Z,39.99
2022-10-02T08:39:25.035Z,38.43
2022-10-02T08:42:07.429Z,37.59
2022-10-02T08:45:11.331Z,36.80
2022-10-02T08:48:06.571Z,37.21
2022-10-02T08:51:06.709Z,36.31
2022-10-02T08:53:54.902Z,36.02
2022-10-02T08:56:53.215Z,35.38
2022-10-02T08:59:52.909Z,35.30
2022-10-02T09:02:38.795Z,35.23
2022-10-02T09:05:40.413Z,35.08
2022-10-02T09:08:13.504Z,35.30
2022-10-02T09:10:55.942Z,34.77
2022-10-02T09:13:46.604Z,35.05
2022-10-02T09:16:47.786Z,35.04
2022-10-02T09:19:32.455Z,34.51
2022-10-02T09:22:13.678Z,34.49
2022-10-02T09:25:12.470Z,34.87
2022-10-02T09:28:13.936Z,34.92
2022-10-02T09:31:19.555Z,35.38
2022-10-02T09:34:17.158Z,35.43
2022-10-02T09:37:33.217Z,35.92
2022-10-02T09:40:31.721Z,38.53
2022-10-02T09:43:33.293Z,37.32
2022-10-02T09:46:48.628Z,37.93
2022-10-02T09:49:54.481Z,39.11
2022-10-02T09:53:00.935Z,38.27
2022-10-02T09:56:06.486Z,39.09
2022-10-02T09:58:37.764Z,38.06
2022-10-02T10:01:37.950Z,39.75
2022-10-02T10:05:05.125Z,40.08
2022-10-02T10:08:20.132Z,41.31
2022-10-02T10:11:06.293Z,41.25
2022-10-02T10:13:58.967Z,40.33
2022-10-02T10:16:51.655Z,40.56
2022-10-02T10:19:25.122Z,39.92
2022-10-02T10:22:01.451Z,40.47
2022-10-02T10:25:13.597Z,39.76
2022-10-02T10:28:17.435Z,38.96
2022-10-02T10:31:12.688Z,39.00
2022-10-02T10:34:10.383Z,38.90
2022-10-02T10:37:13.162Z,37.57
2022-10-02T10:39:58.961Z,37.34
2022-10-02T10:43:07.396Z,37.75
2022-10-02T10:46:00.186Z,37.54
2022-10-02T10:48:33.329Z,37.40
2022-10-02T10:51:03.594Z,37.89
2022-10-02T10:53:49.650Z,38.67
2022-10-02T10:56:37.547Z,37.27
2022-10-02T10:59:42.834Z,37.36
2022-10-02T11:02:31.757Z,37.27
2022-10-02T11:05:13.172Z,36.99
2022-10-02T11:07:57.104Z,37.50
2022-10-02T11:11:29.373Z,37.43
2022-10-02T11:14:31.577Z,37.11
2022-10-02T11:17:27.221Z,38.00
2022-10-02T11:20:35.386Z,38.17
2022-10-02T11:23:11.633Z,37.42
2022-10-02T11:26:26.825Z,37.75
2022-10-02T11:29:12.984Z,37.30
2022-10-02T11:31:44.278Z,38.38
2022-10-02T11:34:53.235Z,38.10
2022-10-02T11:37:44.238Z,37.43
2022-10-02T11:40:36.603Z,37.86
2022-10-02T11:43:43.791Z,36.78
2022-10-02T11:46:30.172Z,36.45
2022-10-02T11:49:08.652Z,36.55
2022-10-02T11:51:36.815Z,37.22
2022-10-02T11:54:44.024Z,37.21
2022-10-02T11:57:22.153Z,37.63
2022-10-02T12:00:02.911Z,37.47
2022-10-02T12:02:48.722Z,38.08
2022-10-02T12:05:36.302Z,36.85
2022-10-02T12:08:32.227Z,36.65
2022-10-02T12:11:07.639Z,36.65
2022-10-02T12:14:01.489Z,36.03
2022-10-02T12:17:02.488Z,34.47
2022-10-02T12:20:32.721Z,37.21
2022-10-02T12:23:38.413Z,37.47
2022-10-02T12:26:50.482Z,36.03
2022-10-02T12:29:46.631Z,35.35
2022-10-02T12:32:32.571Z,36.92
2022-10-02T12:35:26.607Z,37.71
2022-10-02T12:38:16.580Z,37.47
2022-10-02T12:41:08.672Z,35.94
2022-10-02T12:43:53.493Z,35.66
2022-10-02T12:46:30.177Z,35.43
2022-10-02T12:49:20.343Z,34.31
2022-10-02T12:52:09.817Z,33.10
2022-10-02T12:55:09.118Z,33.36
2022-10-02T12:58:04.367Z,31.97
2022-10-02T13:00:44.482Z,31.31
2022-10-02T13:03:48.331Z,32.27
2022-10-02T13:06:42.310Z,31.38
2022-10-02T13:09:35.506Z,31.64
2022-10-02T13:12:36.006Z,32.80
2022-10-02T13:15:06.945Z,32.13
2022-10-02T13:18:14.848Z,30.96
2022-10-02T13:20:53.020Z,29.85
2022-10-02T13:23:46.501Z,29.91
2022-10-02T13:26:33.130Z,29.52
2022-10-02T13:29:29.450Z,29.54
2022-10-02T13:32:09.169Z,28.58
2022-10-02T13:34:51.968Z,28.17
2022-10-02T13:37:33.321Z,27.59
2022-10-02T13:40:20.521Z,26.95
2022-10-02T13:43:04.753Z,26.91
2022-10-02T13:46:02.970Z,26.67
2022-10-02T13:48:55.445Z,26.31
2022-10-02T13:51:36.370Z,26.21
2022-10-02T13:54:41.904Z,24.07
2022-10-02T13:57:33.152Z,24.56
2022-10-02T14:00:24.089Z,24.84
2022-10-02T14:03:06.687Z,24.41
2022-10-02T14:05:45.929Z,23.70
2022-10-02T14:08:57.956Z,24.93
2022-10-02T14:11:44.611Z,25.41
2022-10-02T14:14:52.348Z,24.93
2022-10-02T14:17:38.710Z,25.18
2022-10-02T14:20:25.643Z,24.02
2022-10-02T14:23:16.827Z,24.55
2022-10-02T14:25:52.957Z,26.14
2022-10-02T14:28:27.187Z,27.45
2022-10-02T14:31:17.537Z,28.22
2022-10-02T14:33:57.965Z,28.55
2022-10-02T14:37:01.841Z,28.19
2022-10-02T14:39:38.419Z,28.45
2022-10-02T14:42:23.529Z,30.72
2022-10-02T14:45:04.783Z,30.34
2022-10-02T14:48:00.442Z,30.72
2022-10-02T14:51:03.607Z,30.16
2022-10-02T14:53:36.227Z,31.82
2022-10-02T14:56:31.602Z,32.12
2022-10-02T14:59:53.544Z,32.46
2022-10-02T15:02:29.690Z,33.92
2022-10-02T15:05:17.286Z,34.31
2022-10-02T15:07:45.913Z,34.04
2022-10-02T15:10:22.287Z,34.34
2022-10-02T15:13:01.702Z,33.06
2022-10-02T15:15:42.542Z,32.20
2022-10-02T15:18:21.334Z,33.17
2022-10-02T15:21:00.854Z,33.33
2022-10-02T15:23:34.721Z,33.70
2022-10-02T15:26:05.443Z,34.25
2022-10-02T15:29:12.609Z,35.04
2022-10-02T15:32:07.889Z,36.32
2022-10-02T15:35:04.308Z,37.93
2022-10-02T15:37:43.731Z,38.38
2022-10-02T15:40:34.163Z,39.47
2022-10-02T15:43:17.508Z,37.99
2022-10-02T15:46:03.630Z,37.53
2022-10-02T15:49:05.056Z,35.90
2022-10-02T15:51:41.407Z,35.65
2022-10-02T15:54:34.589Z,37.09
2022-10-02T15:57:14.006Z,36.99
2022-10-02T15:59:59.979Z,37.87
2022-10-02T16:02:39.287Z,37.23
2022-10-02T16:05:51.687Z,37.40
2022-10-02T16:08:31.280Z,38.40
2022-10-02T16:11:12.187Z,37.05
2022-10-02T16:14:01.728Z,36.62
2022-10-02T16:16:41.924Z,37.76
2022-10-02T16:19:47.317Z,36.80
2022-10-02T16:22:29.831Z,40.08
2022-10-02T16:25:03.145Z,41.76
2022-10-02T16:27:49.223Z,42.39
2022-10-02T16:30:18.960Z,43.44
2022-10-02T16:33:04.644Z,44.04
2022-10-02T16:35:43.848Z,44.51
2022-10-02T16:38:20.713Z,45.49
2022-10-02T16:40:57.246Z,44.31
2022-10-02T16:43:46.832Z,44.59
2022-10-02T16:46:25.993Z,44.10
2022-10-02T16:48:57.820Z,43.10
2022-10-02T16:51:52.113Z,44.27
2022-10-02T16:54:32.937Z,45.53
2022-10-02T16:57:23.776Z,46.13
2022-10-02T17:00:15.421Z,46.89
2022-10-02T17:02:50.609Z,46.99
2022-10-02T17:05:30.366Z,48.57
2022-10-02T17:08:37.965Z,47.30
2022-10-02T17:11:17.384Z,46.18
2022-10-02T17:14:06.660Z,47.06
2022-10-02T17:16:53.213Z,45.75
2022-10-02T17:20:01.736Z,45.43
2022-10-02T17:22:38.303Z,44.93
2022-10-02T17:25:27.427Z,45.97
2022-10-02T17:28:02.198Z,45.34
2022-10-02T17:30:49.594Z,44.98
2022-10-02T17:33:22.794Z,45.93
2022-10-02T17:36:05.409Z,46.46
2022-10-02T17:38:52.222Z,47.92
2022-10-02T17:41:47.747Z,48.06
2022-10-02T17:44:28.933Z,48.16
2022-10-02T17:47:04.893Z,47.96
2022-10-02T17:50:09.801Z,48.49
2022-10-02T17:53:10.862Z,48.17
2022-10-02T17:56:18.752Z,47.34
2022-10-02T17:58:56.136Z,48.23
2022-10-02T18:01:29.316Z,48.41
2022-10-02T18:04:18.616Z,48.35
2022-10-02T18:06:49.338Z,47.85
2022-10-02T18:09:41.155Z,47.37
2022-10-02T18:12:27.505Z,48.64
2022-10-02T18:15:51.482Z,49.52
2022-10-02T18:19:03.267Z,50.06
2022-10-02T18:21:52.416Z,49.45
2022-10-02T18:24:55.441Z,49.00
2022-10-02T18:27:41.779Z,49.94
2022-10-02T18:30:44.348Z,50.03
2022-10-02T18:33:40.847Z,50.07
2022-10-02T18:36:13.305Z,48.37
2022-10-02T18:39:04.340Z,49.44
2022-10-02T18:42:01.936Z,50.22
2022-10-02T18:45:27.547Z,50.81
2022-10-02T18:48:32.983Z,50.32
2022-10-02T18:51:28.700Z,50.19
2022-10-02T18:54:27.005Z,51.28
2022-10-02T18:57:12.640Z,50.15
2022-10-02T19:00:05.471Z,51.50
2022-10-02T19:02:55.280Z,52.23
2022-10-02T19:06:00.716Z,50.91
2022-10-02T19:09:14.645Z,52.10
2022-10-02T19:11:48.961Z,51.88
2022-10-02T19:14:43.656Z,52.20
2022-10-02T19:17:39.475Z,52.08
2022-10-02T19:20:36.766Z,52.62
2022-10-02T19:23:08.934Z,51.84
2022-10-02T19:25:37.018Z,51.48
2022-10-02T19:28:17.896Z,51.67
2022-10-02T19:31:17.291Z,51.77
2022-10-02T19:34:03.699Z,51.01
2022-10-02T19:36:50.508Z,51.65
2022-10-02T19:39:30.767Z,51.41
2022-10-02T19:42:04.166Z,52.48
2022-10-02T19:44:48.403Z,52.71
2022-10-02T19:47:39.367Z,52.45
2022-10-02T19:50:28.382Z,52.08
2022-10-02T19:53:07.260Z,52.27
2022-10-02T19:55:41.431Z,52.88
2022-10-02T19:58:32.748Z,53.42
2022-10-02T20:01:03.288Z,53.58
2022-10-02T20:03:32.697Z,53.25
2022-10-02T20:06:19.665Z,52.48
2022-10-02T20:09:03.611Z,52.09
2022-10-02T20:11:43.456Z,51.87
2022-10-02T20:14:26.805Z,51.55
2022-10-02T20:17:21.981Z,51.46
2022-10-02T20:20:16.182Z,50.66
2022-10-02T20:23:03.103Z,50.22
2022-10-02T20:25:54.122Z,50.27
2022-10-02T20:28:51.357Z,50.87
2022-10-02T20:31:39.796Z,50.48
2022-10-02T20:34:23.975Z,50.81
2022-10-02T20:37:30.357Z,50.86
2022-10-02T20:40:12.176Z,50.17
2022-10-02T20:43:06.538Z,50.12
2022-10-02T20:45:48.154Z,49.57
2022-10-02T20:49:06.465Z,49.93
2022-10-02T20:52:02.339Z,49.47
2022-10-02T20:54:47.245Z,49.25
2022-10-02T20:58:00.326Z,49.19
2022-10-02T21:00:50.136Z,49.21
2022-10-02T21:03:55.709Z,49.01
2022-10-02T21:06:54.931Z,48.82
2022-10-02T21:09:51.230Z,48.71
2022-10-02T21:12:40.006Z,48.68
2022-10-02T21:15:27.611Z,48.73
2022-10-02T21:18:30.289Z,48.31
2022-10-02T21:21:29.580Z,47.87
2022-10-02T21:24:21.453Z,48.26
2022-10-02T21:27:03.829Z,47.84
2022-10-02T21:29:56.103Z,48.04
2022-10-02T21:33:03.091Z,48.33
2022-10-02T21:35:32.247Z,47.83
2022-10-02T21:37:59.388Z,48.21
2022-10-02T21:40:32.895Z,47.99
2022-10-02T21:43:06.950Z,47.99
2022-10-02T21:45:53.137Z,47.96
2022-10-02T21:48:35.348Z,47.96
2022-10-02T21:51:28.047Z,48.42
2022-10-02T21:54:18.864Z,48.35
2022-10-02T21:57:19.611Z,48.23
2022-10-02T22:00:11.727Z,48.32
2022-10-02T22:03:07.244Z,48.33
2022-10-02T22:05:49.020Z,48.60
2022-10-02T22:08:31.649Z,48.68
2022-10-02T22:11:09.891Z,48.28
2022-10-02T22:13:39.472Z,48.19
2022-10-02T22:16:24.474Z,48.60
2022-10-02T22:19:10.241Z,48.08
2022-10-02T22:21:52.303Z,48.58
2022-10-02T22:24:36.668Z,48.20
2022-10-02T22:27:43.531Z,48.67
2022-10-02T22:30:34.529Z,48.41
2022-10-02T22:33:13.559Z,48.40
2022-10-02T22:35:46.360Z,48.59
2022-10-02T22:38:16.784Z,48.69
2022-10-02T22:40:51.751Z,48.75
2022-10-02T22:43:36.148Z,49.12
2022-10-02T22:46:30.319Z,49.09
2022-10-02T22:49:02.463Z,48.76
2022-10-02T22:51:44.322Z,49.19
2022-10-02T22:54:11.489Z,48.89
2022-10-02T22:56:45.481Z,49.21
2022-10-02T22:59:18.893Z,49.37
2022-10-02T23:02:06.834Z,49.26
2022-10-02T23:05:10.002Z,49.49
2022-10-02T23:07:55.774Z,49.43
2022-10-02T23:10:35.809Z,50.10
2022-10-02T23:13:15.905Z,49.59
2022-10-02T23:16:09.932Z,49.31
2022-10-02T23:18:50.801Z,49.59
2022-10-02T23:21:28.987Z,49.63
2022-10-02T23:24:17.587Z,49.75
2022-10-02T23:27:03.025Z,49.80
2022-10-02T23:29:46.002Z,49.57
2022-10-02T23:32:43.825Z,50.00
2022-10-02T23:35:14.843Z,49.56
2022-10-02T23:37:48.100Z,49.64
2022-10-02T23:40:31.212Z,49.55
2022-10-02T23:43:03.435Z,50.08
2022-10-02T23:45:40.374Z,49.97
2022-10-02T23:48:15.111Z,49.47
2022-10-02T23:51:02.292Z,49.62
2022-10-02T23:53:32.293Z,49.53
2022-10-02T23:56:28.070Z,49.61
